KQFX

Buron

Buron, South Korea
METAR KQFX 181520Z AUTO 00000KT 6000 HZ BKN220 M02/M05 A3026 RMK A02 TSNO
Observed Flight Rules
Jan-18 @ 15:20 UTC (26 minutes ago) Marginal Visual Flight Rules
Wind Visibility Clouds Conditions
Calm 6,003 meters
  • Broken at 22,000' AGL
  • Haze
Temperatures Readings
Current -2°C / 28°F
Dewpoint -5°C / 23°F
Humidity 80%
Altimeter 30.26" Hg
Pressure 1025 hPa
METAR KQFX 181520Z AUTO 00000KT 6000 HZ BKN220 M02/M05 A3026 RMK A02 TSNO
Observed Flight Rules
Jan-18 @ 15:20 UTC
(26 minutes ago)
MVFR
Wind Visibility
Calm 6,003 meters
Clouds
  • Broken at 22,000' AGL
Conditions
  • Haze
Temperature Dewpoint
-2°C / 28°F -5°C / 23°F
Humidity Altimeter Pressure
80% 30.26" Hg 1025 hPa